sensor_id;sensor_type;location;lat;lon;timestamp;P1;durP1;ratioP1;P2;durP2;ratioP2
249;SDS011;109;19.806;-70.704;2023-01-16T00:01:24;10.97;;;4.20;;
249;SDS011;109;19.806;-70.704;2023-01-16T00:03:53;10.37;;;4.17;;
249;SDS011;109;19.806;-70.704;2023-01-16T00:06:19;10.83;;;4.07;;
249;SDS011;109;19.806;-70.704;2023-01-16T00:08:46;10.23;;;3.90;;
249;SDS011;109;19.806;-70.704;2023-01-16T00:11:14;12.20;;;4.90;;
249;SDS011;109;19.806;-70.704;2023-01-16T00:13:40;10.30;;;4.20;;
249;SDS011;109;19.806;-70.704;2023-01-16T00:16:07;13.63;;;3.87;;
249;SDS011;109;19.806;-70.704;2023-01-16T00:18:33;14.90;;;3.87;;
249;SDS011;109;19.806;-70.704;2023-01-16T00:21:00;11.47;;;4.00;;
249;SDS011;109;19.806;-70.704;2023-01-16T00:23:27;9.67;;;3.60;;
249;SDS011;109;19.806;-70.704;2023-01-16T00:25:54;9.10;;;3.83;;
249;SDS011;109;19.806;-70.704;2023-01-16T00:28:21;12.80;;;4.13;;
249;SDS011;109;19.806;-70.704;2023-01-16T00:30:47;11.40;;;4.23;;
249;SDS011;109;19.806;-70.704;2023-01-16T00:33:14;24.63;;;6.20;;
249;SDS011;109;19.806;-70.704;2023-01-16T00:35:42;10.80;;;3.97;;
249;SDS011;109;19.806;-70.704;2023-01-16T00:38:09;11.17;;;3.70;;
249;SDS011;109;19.806;-70.704;2023-01-16T00:40:35;7.80;;;3.40;;
249;SDS011;109;19.806;-70.704;2023-01-16T00:43:08;10.07;;;4.03;;
249;SDS011;109;19.806;-70.704;2023-01-16T00:45:35;15.37;;;4.20;;
249;SDS011;109;19.806;-70.704;2023-01-16T00:48:08;11.53;;;4.10;;
249;SDS011;109;19.806;-70.704;2023-01-16T00:50:35;6.50;;;3.83;;
249;SDS011;109;19.806;-70.704;2023-01-16T00:53:08;13.90;;;4.20;;
249;SDS011;109;19.806;-70.704;2023-01-16T00:55:35;10.93;;;3.83;;
249;SDS011;109;19.806;-70.704;2023-01-16T00:58:09;12.70;;;4.93;;
249;SDS011;109;19.806;-70.704;2023-01-16T01:00:36;9.20;;;3.93;;
249;SDS011;109;19.806;-70.704;2023-01-16T01:03:09;14.27;;;4.07;;
249;SDS011;109;19.806;-70.704;2023-01-16T01:05:36;14.23;;;4.77;;
249;SDS011;109;19.806;-70.704;2023-01-16T01:08:10;7.53;;;3.00;;
249;SDS011;109;19.806;-70.704;2023-01-16T01:10:37;8.33;;;3.73;;
249;SDS011;109;19.806;-70.704;2023-01-16T01:13:12;9.23;;;3.70;;
249;SDS011;109;19.806;-70.704;2023-01-16T01:15:38;10.73;;;4.27;;
249;SDS011;109;19.806;-70.704;2023-01-16T01:18:12;10.90;;;3.57;;
249;SDS011;109;19.806;-70.704;2023-01-16T01:20:39;6.73;;;3.73;;
249;SDS011;109;19.806;-70.704;2023-01-16T01:23:12;18.53;;;4.63;;
249;SDS011;109;19.806;-70.704;2023-01-16T01:25:38;10.03;;;3.50;;
249;SDS011;109;19.806;-70.704;2023-01-16T01:28:11;8.87;;;3.80;;
249;SDS011;109;19.806;-70.704;2023-01-16T01:30:38;14.80;;;3.97;;
249;SDS011;109;19.806;-70.704;2023-01-16T01:33:11;14.30;;;3.60;;
249;SDS011;109;19.806;-70.704;2023-01-16T01:35:38;18.67;;;4.53;;
249;SDS011;109;19.806;-70.704;2023-01-16T01:38:11;11.20;;;4.33;;
249;SDS011;109;19.806;-70.704;2023-01-16T01:40:51;12.63;;;5.77;;
249;SDS011;109;19.806;-70.704;2023-01-16T01:43:45;20.33;;;7.40;;
249;SDS011;109;19.806;-70.704;2023-01-16T01:46:42;15.83;;;6.10;;
249;SDS011;109;19.806;-70.704;2023-01-16T01:49:28;12.90;;;4.80;;
249;SDS011;109;19.806;-70.704;2023-01-16T01:51:57;15.40;;;4.43;;
249;SDS011;109;19.806;-70.704;2023-01-16T01:54:45;10.33;;;4.73;;
249;SDS011;109;19.806;-70.704;2023-01-16T01:57:35;11.70;;;4.40;;
249;SDS011;109;19.806;-70.704;2023-01-16T02:00:19;5.90;;;3.87;;
249;SDS011;109;19.806;-70.704;2023-01-16T02:03:10;9.47;;;4.60;;
249;SDS011;109;19.806;-70.704;2023-01-16T02:05:48;13.93;;;5.20;;
249;SDS011;109;19.806;-70.704;2023-01-16T02:08:30;8.57;;;4.00;;
249;SDS011;109;19.806;-70.704;2023-01-16T02:11:02;8.10;;;3.97;;
249;SDS011;109;19.806;-70.704;2023-01-16T02:13:58;10.33;;;4.10;;
249;SDS011;109;19.806;-70.704;2023-01-16T02:16:35;8.97;;;4.00;;
249;SDS011;109;19.806;-70.704;2023-01-16T02:23:09;13.93;;;4.40;;
249;SDS011;109;19.806;-70.704;2023-01-16T02:29:15;10.20;;;4.30;;
249;SDS011;109;19.806;-70.704;2023-01-16T02:32:28;17.23;;;4.23;;
249;SDS011;109;19.806;-70.704;2023-01-16T02:38:35;8.40;;;3.50;;
249;SDS011;109;19.806;-70.704;2023-01-16T02:41:22;13.60;;;3.70;;
249;SDS011;109;19.806;-70.704;2023-01-16T02:44:29;9.03;;;3.60;;
249;SDS011;109;19.806;-70.704;2023-01-16T02:47:28;11.43;;;3.43;;
249;SDS011;109;19.806;-70.704;2023-01-16T02:50:31;8.77;;;3.80;;
249;SDS011;109;19.806;-70.704;2023-01-16T02:53:29;9.73;;;4.53;;
249;SDS011;109;19.806;-70.704;2023-01-16T02:56:33;12.70;;;3.73;;
249;SDS011;109;19.806;-70.704;2023-01-16T02:59:28;13.03;;;4.17;;
249;SDS011;109;19.806;-70.704;2023-01-16T03:02:08;17.43;;;3.33;;
249;SDS011;109;19.806;-70.704;2023-01-16T03:04:39;16.93;;;4.40;;
249;SDS011;109;19.806;-70.704;2023-01-16T03:16:04;10.07;;;4.07;;
249;SDS011;109;19.806;-70.704;2023-01-16T03:22:33;9.57;;;3.87;;
249;SDS011;109;19.806;-70.704;2023-01-16T03:25:26;8.57;;;3.67;;
249;SDS011;109;19.806;-70.704;2023-01-16T03:28:20;10.10;;;4.20;;
249;SDS011;109;19.806;-70.704;2023-01-16T03:31:06;9.83;;;3.87;;
249;SDS011;109;19.806;-70.704;2023-01-16T03:33:58;9.37;;;3.27;;
249;SDS011;109;19.806;-70.704;2023-01-16T03:39:43;9.73;;;3.67;;
249;SDS011;109;19.806;-70.704;2023-01-16T03:42:30;8.10;;;4.13;;
249;SDS011;109;19.806;-70.704;2023-01-16T03:45:43;15.37;;;4.30;;
249;SDS011;109;19.806;-70.704;2023-01-16T03:51:03;13.70;;;4.40;;
249;SDS011;109;19.806;-70.704;2023-01-16T03:54:01;12.13;;;3.80;;
249;SDS011;109;19.806;-70.704;2023-01-16T03:57:04;11.87;;;4.43;;
249;SDS011;109;19.806;-70.704;2023-01-16T03:59:48;8.90;;;3.30;;
249;SDS011;109;19.806;-70.704;2023-01-16T04:05:18;11.07;;;3.50;;
249;SDS011;109;19.806;-70.704;2023-01-16T04:08:16;11.23;;;3.73;;
249;SDS011;109;19.806;-70.704;2023-01-16T04:11:03;8.90;;;3.50;;
249;SDS011;109;19.806;-70.704;2023-01-16T04:13:46;11.07;;;3.90;;
249;SDS011;109;19.806;-70.704;2023-01-16T04:16:23;12.00;;;3.37;;
249;SDS011;109;19.806;-70.704;2023-01-16T04:19:03;11.27;;;4.20;;
249;SDS011;109;19.806;-70.704;2023-01-16T04:21:31;8.23;;;3.80;;
249;SDS011;109;19.806;-70.704;2023-01-16T04:24:12;6.30;;;3.10;;
249;SDS011;109;19.806;-70.704;2023-01-16T04:26:40;14.97;;;3.37;;
249;SDS011;109;19.806;-70.704;2023-01-16T04:29:23;9.10;;;4.00;;
249;SDS011;109;19.806;-70.704;2023-01-16T04:31:51;8.33;;;3.17;;
249;SDS011;109;19.806;-70.704;2023-01-16T04:34:38;11.00;;;3.57;;
249;SDS011;109;19.806;-70.704;2023-01-16T04:37:17;10.90;;;4.00;;
249;SDS011;109;19.806;-70.704;2023-01-16T04:39:44;10.53;;;4.00;;
249;SDS011;109;19.806;-70.704;2023-01-16T04:42:24;11.73;;;3.50;;
249;SDS011;109;19.806;-70.704;2023-01-16T04:44:51;11.23;;;4.10;;
249;SDS011;109;19.806;-70.704;2023-01-16T04:47:32;16.90;;;4.10;;
249;SDS011;109;19.806;-70.704;2023-01-16T04:49:59;10.77;;;3.73;;
249;SDS011;109;19.806;-70.704;2023-01-16T04:52:39;11.10;;;3.60;;
249;SDS011;109;19.806;-70.704;2023-01-16T04:55:06;7.63;;;3.30;;
249;SDS011;109;19.806;-70.704;2023-01-16T04:57:46;13.10;;;3.43;;
249;SDS011;109;19.806;-70.704;2023-01-16T05:00:13;12.97;;;3.80;;
249;SDS011;109;19.806;-70.704;2023-01-16T05:02:53;8.67;;;3.47;;
249;SDS011;109;19.806;-70.704;2023-01-16T05:05:27;8.60;;;3.30;;
249;SDS011;109;19.806;-70.704;2023-01-16T05:08:06;8.40;;;3.47;;
249;SDS011;109;19.806;-70.704;2023-01-16T05:10:48;11.90;;;3.70;;
249;SDS011;109;19.806;-70.704;2023-01-16T05:13:31;8.37;;;3.70;;
249;SDS011;109;19.806;-70.704;2023-01-16T05:15:58;7.80;;;3.17;;
249;SDS011;109;19.806;-70.704;2023-01-16T05:18:38;12.03;;;3.60;;
249;SDS011;109;19.806;-70.704;2023-01-16T05:21:05;12.17;;;3.20;;
249;SDS011;109;19.806;-70.704;2023-01-16T05:23:44;7.33;;;3.40;;
249;SDS011;109;19.806;-70.704;2023-01-16T05:26:11;16.03;;;4.03;;
249;SDS011;109;19.806;-70.704;2023-01-16T05:28:50;6.90;;;3.20;;
249;SDS011;109;19.806;-70.704;2023-01-16T05:31:17;6.90;;;3.03;;
249;SDS011;109;19.806;-70.704;2023-01-16T05:33:58;13.10;;;3.67;;
249;SDS011;109;19.806;-70.704;2023-01-16T05:36:25;11.73;;;3.23;;
249;SDS011;109;19.806;-70.704;2023-01-16T05:39:11;13.87;;;3.57;;
249;SDS011;109;19.806;-70.704;2023-01-16T05:41:44;10.77;;;3.20;;
249;SDS011;109;19.806;-70.704;2023-01-16T05:44:32;11.23;;;3.30;;
249;SDS011;109;19.806;-70.704;2023-01-16T05:47:11;8.53;;;3.70;;
249;SDS011;109;19.806;-70.704;2023-01-16T05:49:37;10.93;;;3.40;;
249;SDS011;109;19.806;-70.704;2023-01-16T05:52:18;7.70;;;3.37;;
249;SDS011;109;19.806;-70.704;2023-01-16T05:54:45;9.27;;;3.50;;
249;SDS011;109;19.806;-70.704;2023-01-16T05:57:24;20.40;;;4.30;;
249;SDS011;109;19.806;-70.704;2023-01-16T05:59:51;6.97;;;3.57;;
249;SDS011;109;19.806;-70.704;2023-01-16T06:02:31;12.37;;;2.93;;
249;SDS011;109;19.806;-70.704;2023-01-16T06:04:57;8.20;;;3.60;;
249;SDS011;109;19.806;-70.704;2023-01-16T06:07:46;8.90;;;3.43;;
249;SDS011;109;19.806;-70.704;2023-01-16T06:10:19;10.07;;;3.50;;
249;SDS011;109;19.806;-70.704;2023-01-16T06:13:00;14.70;;;3.83;;
249;SDS011;109;19.806;-70.704;2023-01-16T06:15:26;7.20;;;3.20;;
249;SDS011;109;19.806;-70.704;2023-01-16T06:18:06;7.87;;;3.20;;
249;SDS011;109;19.806;-70.704;2023-01-16T06:20:33;10.40;;;3.30;;
249;SDS011;109;19.806;-70.704;2023-01-16T06:23:13;10.17;;;3.70;;
249;SDS011;109;19.806;-70.704;2023-01-16T06:25:40;10.03;;;3.70;;
249;SDS011;109;19.806;-70.704;2023-01-16T06:28:19;9.23;;;3.03;;
249;SDS011;109;19.806;-70.704;2023-01-16T06:30:49;14.47;;;3.30;;
249;SDS011;109;19.806;-70.704;2023-01-16T06:33:30;7.80;;;2.90;;
249;SDS011;109;19.806;-70.704;2023-01-16T06:35:57;8.83;;;2.90;;
249;SDS011;109;19.806;-70.704;2023-01-16T06:38:44;8.47;;;3.20;;
249;SDS011;109;19.806;-70.704;2023-01-16T06:41:17;14.10;;;4.10;;
249;SDS011;109;19.806;-70.704;2023-01-16T06:43:57;7.40;;;3.10;;
249;SDS011;109;19.806;-70.704;2023-01-16T06:46:31;9.20;;;2.90;;
249;SDS011;109;19.806;-70.704;2023-01-16T06:49:10;18.33;;;3.10;;
249;SDS011;109;19.806;-70.704;2023-01-16T06:51:37;8.90;;;3.40;;
249;SDS011;109;19.806;-70.704;2023-01-16T06:54:18;9.47;;;3.00;;
249;SDS011;109;19.806;-70.704;2023-01-16T06:56:45;12.43;;;3.13;;
249;SDS011;109;19.806;-70.704;2023-01-16T06:59:25;10.70;;;2.90;;
249;SDS011;109;19.806;-70.704;2023-01-16T07:02:04;10.70;;;2.80;;
249;SDS011;109;19.806;-70.704;2023-01-16T07:04:31;7.30;;;2.97;;
249;SDS011;109;19.806;-70.704;2023-01-16T07:07:10;8.40;;;2.93;;
249;SDS011;109;19.806;-70.704;2023-01-16T07:09:44;11.27;;;3.40;;
249;SDS011;109;19.806;-70.704;2023-01-16T07:12:24;7.13;;;2.70;;
249;SDS011;109;19.806;-70.704;2023-01-16T07:14:51;11.17;;;3.50;;
249;SDS011;109;19.806;-70.704;2023-01-16T07:17:49;16.30;;;3.13;;
249;SDS011;109;19.806;-70.704;2023-01-16T07:20:42;8.23;;;3.03;;
249;SDS011;109;19.806;-70.704;2023-01-16T07:23:46;10.77;;;3.73;;
249;SDS011;109;19.806;-70.704;2023-01-16T07:26:21;10.13;;;3.60;;
249;SDS011;109;19.806;-70.704;2023-01-16T07:29:03;8.27;;;3.83;;
249;SDS011;109;19.806;-70.704;2023-01-16T07:31:30;8.40;;;3.13;;
249;SDS011;109;19.806;-70.704;2023-01-16T07:34:12;8.10;;;3.10;;
249;SDS011;109;19.806;-70.704;2023-01-16T07:36:39;8.40;;;2.93;;
249;SDS011;109;19.806;-70.704;2023-01-16T07:39:25;10.53;;;3.80;;
249;SDS011;109;19.806;-70.704;2023-01-16T07:42:04;6.13;;;3.00;;
249;SDS011;109;19.806;-70.704;2023-01-16T07:44:46;8.37;;;3.40;;
249;SDS011;109;19.806;-70.704;2023-01-16T07:47:34;10.80;;;3.10;;
249;SDS011;109;19.806;-70.704;2023-01-16T07:50:07;5.80;;;3.10;;
249;SDS011;109;19.806;-70.704;2023-01-16T07:52:47;16.20;;;3.17;;
249;SDS011;109;19.806;-70.704;2023-01-16T07:55:14;11.30;;;3.40;;
249;SDS011;109;19.806;-70.704;2023-01-16T07:57:53;5.40;;;2.50;;
249;SDS011;109;19.806;-70.704;2023-01-16T08:00:20;9.93;;;3.00;;
249;SDS011;109;19.806;-70.704;2023-01-16T08:03:00;10.13;;;3.00;;
249;SDS011;109;19.806;-70.704;2023-01-16T08:05:26;10.70;;;2.90;;
249;SDS011;109;19.806;-70.704;2023-01-16T08:08:06;10.83;;;3.00;;
249;SDS011;109;19.806;-70.704;2023-01-16T08:10:41;5.23;;;2.80;;
249;SDS011;109;19.806;-70.704;2023-01-16T08:13:21;8.47;;;2.90;;
249;SDS011;109;19.806;-70.704;2023-01-16T08:15:48;9.13;;;2.80;;
249;SDS011;109;19.806;-70.704;2023-01-16T08:18:29;9.50;;;2.70;;
249;SDS011;109;19.806;-70.704;2023-01-16T08:20:56;8.70;;;3.40;;
249;SDS011;109;19.806;-70.704;2023-01-16T08:23:35;7.43;;;2.70;;
249;SDS011;109;19.806;-70.704;2023-01-16T08:26:03;8.80;;;2.90;;
249;SDS011;109;19.806;-70.704;2023-01-16T08:28:51;11.13;;;3.23;;
249;SDS011;109;19.806;-70.704;2023-01-16T08:31:24;6.90;;;3.00;;
249;SDS011;109;19.806;-70.704;2023-01-16T08:34:05;12.30;;;3.30;;
249;SDS011;109;19.806;-70.704;2023-01-16T08:36:32;8.60;;;4.63;;
249;SDS011;109;19.806;-70.704;2023-01-16T08:39:18;27.17;;;5.00;;
249;SDS011;109;19.806;-70.704;2023-01-16T08:41:59;9.23;;;2.80;;
249;SDS011;109;19.806;-70.704;2023-01-16T08:44:50;5.03;;;2.70;;
249;SDS011;109;19.806;-70.704;2023-01-16T08:47:49;6.37;;;3.07;;
249;SDS011;109;19.806;-70.704;2023-01-16T08:50:40;6.67;;;2.93;;
249;SDS011;109;19.806;-70.704;2023-01-16T08:53:39;14.80;;;3.13;;
249;SDS011;109;19.806;-70.704;2023-01-16T08:56:06;7.90;;;2.80;;
249;SDS011;109;19.806;-70.704;2023-01-16T08:58:46;13.13;;;3.13;;
249;SDS011;109;19.806;-70.704;2023-01-16T09:01:13;8.40;;;4.00;;
249;SDS011;109;19.806;-70.704;2023-01-16T09:03:53;8.00;;;3.07;;
249;SDS011;109;19.806;-70.704;2023-01-16T09:06:20;7.53;;;3.17;;
249;SDS011;109;19.806;-70.704;2023-01-16T09:09:00;5.27;;;2.80;;
249;SDS011;109;19.806;-70.704;2023-01-16T09:11:45;7.80;;;2.90;;
249;SDS011;109;19.806;-70.704;2023-01-16T09:14:43;8.07;;;2.80;;
249;SDS011;109;19.806;-70.704;2023-01-16T09:17:24;7.27;;;2.90;;
249;SDS011;109;19.806;-70.704;2023-01-16T09:19:52;7.40;;;2.63;;
249;SDS011;109;19.806;-70.704;2023-01-16T09:22:31;10.50;;;3.10;;
249;SDS011;109;19.806;-70.704;2023-01-16T09:24:58;6.67;;;2.90;;
249;SDS011;109;19.806;-70.704;2023-01-16T09:27:39;15.57;;;3.53;;
249;SDS011;109;19.806;-70.704;2023-01-16T09:30:06;6.70;;;3.23;;
249;SDS011;109;19.806;-70.704;2023-01-16T09:32:46;7.23;;;3.53;;
249;SDS011;109;19.806;-70.704;2023-01-16T09:35:13;8.87;;;3.20;;
249;SDS011;109;19.806;-70.704;2023-01-16T09:38:00;10.70;;;2.90;;
249;SDS011;109;19.806;-70.704;2023-01-16T09:40:33;9.07;;;3.13;;
249;SDS011;109;19.806;-70.704;2023-01-16T09:46:14;10.60;;;4.10;;
249;SDS011;109;19.806;-70.704;2023-01-16T09:52:11;9.53;;;3.63;;
249;SDS011;109;19.806;-70.704;2023-01-16T09:55:21;12.30;;;3.40;;
249;SDS011;109;19.806;-70.704;2023-01-16T09:58:25;8.33;;;3.50;;
249;SDS011;109;19.806;-70.704;2023-01-16T10:01:15;7.83;;;3.93;;
249;SDS011;109;19.806;-70.704;2023-01-16T10:04:16;8.70;;;3.30;;
249;SDS011;109;19.806;-70.704;2023-01-16T10:07:18;16.13;;;3.67;;
249;SDS011;109;19.806;-70.704;2023-01-16T10:13:23;11.43;;;3.53;;
249;SDS011;109;19.806;-70.704;2023-01-16T10:25:24;12.13;;;3.33;;
249;SDS011;109;19.806;-70.704;2023-01-16T10:30:54;9.60;;;3.43;;
249;SDS011;109;19.806;-70.704;2023-01-16T10:33:52;11.63;;;3.57;;
249;SDS011;109;19.806;-70.704;2023-01-16T10:36:44;9.63;;;3.40;;
249;SDS011;109;19.806;-70.704;2023-01-16T10:39:20;11.63;;;3.50;;
249;SDS011;109;19.806;-70.704;2023-01-16T10:45:13;6.90;;;2.97;;
249;SDS011;109;19.806;-70.704;2023-01-16T10:48:12;16.90;;;3.73;;
249;SDS011;109;19.806;-70.704;2023-01-16T10:51:06;11.87;;;4.30;;
249;SDS011;109;19.806;-70.704;2023-01-16T10:53:34;6.13;;;4.10;;
249;SDS011;109;19.806;-70.704;2023-01-16T10:56:03;7.63;;;4.30;;
249;SDS011;109;19.806;-70.704;2023-01-16T10:58:31;15.43;;;4.20;;
249;SDS011;109;19.806;-70.704;2023-01-16T11:01:03;13.63;;;4.30;;
249;SDS011;109;19.806;-70.704;2023-01-16T11:06:14;14.10;;;4.40;;
249;SDS011;109;19.806;-70.704;2023-01-16T11:08:51;15.17;;;3.83;;
249;SDS011;109;19.806;-70.704;2023-01-16T11:11:19;12.20;;;3.50;;
249;SDS011;109;19.806;-70.704;2023-01-16T11:20:02;9.73;;;3.80;;
249;SDS011;109;19.806;-70.704;2023-01-16T11:22:30;7.63;;;3.50;;
249;SDS011;109;19.806;-70.704;2023-01-16T11:25:02;16.90;;;3.90;;
249;SDS011;109;19.806;-70.704;2023-01-16T11:27:34;7.93;;;3.60;;
249;SDS011;109;19.806;-70.704;2023-01-16T11:30:05;18.23;;;4.17;;
249;SDS011;109;19.806;-70.704;2023-01-16T11:32:40;8.60;;;3.83;;
249;SDS011;109;19.806;-70.704;2023-01-16T11:35:13;11.57;;;3.80;;
249;SDS011;109;19.806;-70.704;2023-01-16T11:37:42;9.93;;;3.70;;
249;SDS011;109;19.806;-70.704;2023-01-16T11:40:18;9.63;;;4.03;;
249;SDS011;109;19.806;-70.704;2023-01-16T11:42:57;7.70;;;3.40;;
249;SDS011;109;19.806;-70.704;2023-01-16T11:45:46;10.50;;;4.00;;
249;SDS011;109;19.806;-70.704;2023-01-16T11:51:18;8.33;;;4.10;;
249;SDS011;109;19.806;-70.704;2023-01-16T11:53:49;12.20;;;3.80;;
249;SDS011;109;19.806;-70.704;2023-01-16T11:58:57;7.03;;;4.23;;
249;SDS011;109;19.806;-70.704;2023-01-16T12:04:37;12.07;;;4.17;;
249;SDS011;109;19.806;-70.704;2023-01-16T12:10:25;16.20;;;4.80;;
249;SDS011;109;19.806;-70.704;2023-01-16T12:13:05;12.73;;;3.93;;
249;SDS011;109;19.806;-70.704;2023-01-16T12:15:56;12.13;;;4.40;;
249;SDS011;109;19.806;-70.704;2023-01-16T12:21:50;9.97;;;3.50;;
249;SDS011;109;19.806;-70.704;2023-01-16T12:24:37;10.37;;;4.23;;
249;SDS011;109;19.806;-70.704;2023-01-16T12:33:19;8.43;;;3.97;;
249;SDS011;109;19.806;-70.704;2023-01-16T12:36:06;6.90;;;3.57;;
249;SDS011;109;19.806;-70.704;2023-01-16T12:38:45;8.90;;;3.70;;
249;SDS011;109;19.806;-70.704;2023-01-16T12:41:27;11.50;;;3.97;;
249;SDS011;109;19.806;-70.704;2023-01-16T12:44:27;9.70;;;3.50;;
249;SDS011;109;19.806;-70.704;2023-01-16T12:55:26;15.13;;;4.30;;
249;SDS011;109;19.806;-70.704;2023-01-16T12:58:15;11.17;;;4.77;;
249;SDS011;109;19.806;-70.704;2023-01-16T13:01:04;10.13;;;4.60;;
249;SDS011;109;19.806;-70.704;2023-01-16T13:03:35;7.23;;;3.50;;
249;SDS011;109;19.806;-70.704;2023-01-16T13:06:11;14.67;;;4.47;;
249;SDS011;109;19.806;-70.704;2023-01-16T13:08:52;12.47;;;4.00;;
249;SDS011;109;19.806;-70.704;2023-01-16T13:11:36;8.70;;;4.17;;
249;SDS011;109;19.806;-70.704;2023-01-16T13:14:27;10.47;;;3.80;;
249;SDS011;109;19.806;-70.704;2023-01-16T13:19:32;14.90;;;3.90;;
249;SDS011;109;19.806;-70.704;2023-01-16T13:24:38;9.17;;;4.17;;
249;SDS011;109;19.806;-70.704;2023-01-16T13:27:13;10.37;;;3.87;;
249;SDS011;109;19.806;-70.704;2023-01-16T13:29:48;12.20;;;4.03;;
249;SDS011;109;19.806;-70.704;2023-01-16T13:33:10;13.70;;;4.40;;
249;SDS011;109;19.806;-70.704;2023-01-16T13:43:43;14.53;;;4.70;;
249;SDS011;109;19.806;-70.704;2023-01-16T13:46:29;18.17;;;5.30;;
249;SDS011;109;19.806;-70.704;2023-01-16T13:48:58;18.33;;;5.20;;
249;SDS011;109;19.806;-70.704;2023-01-16T13:51:27;27.53;;;4.90;;
249;SDS011;109;19.806;-70.704;2023-01-16T13:53:55;10.60;;;4.13;;
249;SDS011;109;19.806;-70.704;2023-01-16T13:56:25;9.53;;;4.50;;
249;SDS011;109;19.806;-70.704;2023-01-16T13:59:26;49.97;;;6.77;;
249;SDS011;109;19.806;-70.704;2023-01-16T14:01:55;14.97;;;3.50;;
249;SDS011;109;19.806;-70.704;2023-01-16T14:06:49;12.97;;;3.77;;
249;SDS011;109;19.806;-70.704;2023-01-16T14:12:32;11.37;;;2.97;;
249;SDS011;109;19.806;-70.704;2023-01-16T14:15:22;12.10;;;3.90;;
249;SDS011;109;19.806;-70.704;2023-01-16T14:18:20;16.00;;;3.13;;
249;SDS011;109;19.806;-70.704;2023-01-16T14:23:17;20.30;;;3.30;;
249;SDS011;109;19.806;-70.704;2023-01-16T14:26:03;11.10;;;3.03;;
249;SDS011;109;19.806;-70.704;2023-01-16T14:28:32;6.53;;;3.30;;
249;SDS011;109;19.806;-70.704;2023-01-16T14:30:59;17.50;;;4.20;;
249;SDS011;109;19.806;-70.704;2023-01-16T14:33:27;13.80;;;4.57;;
249;SDS011;109;19.806;-70.704;2023-01-16T14:35:55;8.83;;;3.63;;
249;SDS011;109;19.806;-70.704;2023-01-16T14:38:26;12.83;;;4.37;;
249;SDS011;109;19.806;-70.704;2023-01-16T14:41:05;9.73;;;3.80;;
249;SDS011;109;19.806;-70.704;2023-01-16T14:44:10;13.03;;;4.03;;
249;SDS011;109;19.806;-70.704;2023-01-16T14:52:57;11.90;;;3.40;;
249;SDS011;109;19.806;-70.704;2023-01-16T14:56:02;12.27;;;3.43;;
249;SDS011;109;19.806;-70.704;2023-01-16T14:58:54;10.63;;;3.00;;
249;SDS011;109;19.806;-70.704;2023-01-16T15:01:46;10.50;;;3.77;;
249;SDS011;109;19.806;-70.704;2023-01-16T15:04:41;29.23;;;4.00;;
249;SDS011;109;19.806;-70.704;2023-01-16T15:07:17;10.63;;;2.80;;
249;SDS011;109;19.806;-70.704;2023-01-16T15:09:50;9.27;;;2.50;;
249;SDS011;109;19.806;-70.704;2023-01-16T15:12:19;6.30;;;2.50;;
249;SDS011;109;19.806;-70.704;2023-01-16T15:14:55;15.47;;;3.00;;
249;SDS011;109;19.806;-70.704;2023-01-16T15:20:27;10.17;;;2.53;;
249;SDS011;109;19.806;-70.704;2023-01-16T15:23:39;10.93;;;2.47;;
249;SDS011;109;19.806;-70.704;2023-01-16T15:26:20;12.10;;;2.80;;
249;SDS011;109;19.806;-70.704;2023-01-16T15:31:57;15.47;;;3.73;;
249;SDS011;109;19.806;-70.704;2023-01-16T15:34:30;13.87;;;2.73;;
249;SDS011;109;19.806;-70.704;2023-01-16T15:36:58;6.27;;;2.33;;
249;SDS011;109;19.806;-70.704;2023-01-16T15:42:04;8.87;;;2.87;;
249;SDS011;109;19.806;-70.704;2023-01-16T15:45:00;10.17;;;2.73;;
249;SDS011;109;19.806;-70.704;2023-01-16T15:51:09;9.30;;;2.50;;
249;SDS011;109;19.806;-70.704;2023-01-16T15:53:41;9.63;;;2.77;;
249;SDS011;109;19.806;-70.704;2023-01-16T15:58:55;6.97;;;2.37;;
249;SDS011;109;19.806;-70.704;2023-01-16T16:01:26;8.37;;;2.70;;
249;SDS011;109;19.806;-70.704;2023-01-16T16:03:54;22.53;;;3.57;;
249;SDS011;109;19.806;-70.704;2023-01-16T16:06:22;24.83;;;3.40;;
249;SDS011;109;19.806;-70.704;2023-01-16T16:08:52;14.67;;;3.60;;
249;SDS011;109;19.806;-70.704;2023-01-16T16:11:23;17.30;;;3.30;;
249;SDS011;109;19.806;-70.704;2023-01-16T16:14:29;7.00;;;2.83;;
249;SDS011;109;19.806;-70.704;2023-01-16T16:20:25;12.60;;;2.70;;
249;SDS011;109;19.806;-70.704;2023-01-16T16:22:55;7.77;;;2.30;;
249;SDS011;109;19.806;-70.704;2023-01-16T16:28:28;19.60;;;3.50;;
249;SDS011;109;19.806;-70.704;2023-01-16T16:31:06;9.60;;;2.70;;
249;SDS011;109;19.806;-70.704;2023-01-16T16:33:51;13.87;;;2.83;;
249;SDS011;109;19.806;-70.704;2023-01-16T16:36:24;16.77;;;2.80;;
249;SDS011;109;19.806;-70.704;2023-01-16T16:38:52;5.20;;;2.33;;
249;SDS011;109;19.806;-70.704;2023-01-16T16:44:23;12.27;;;2.40;;
249;SDS011;109;19.806;-70.704;2023-01-16T16:46:54;12.97;;;3.40;;
249;SDS011;109;19.806;-70.704;2023-01-16T16:51:49;16.57;;;3.50;;
249;SDS011;109;19.806;-70.704;2023-01-16T16:54:17;10.80;;;2.57;;
249;SDS011;109;19.806;-70.704;2023-01-16T16:56:44;7.83;;;2.60;;
249;SDS011;109;19.806;-70.704;2023-01-16T16:59:27;11.30;;;2.77;;
249;SDS011;109;19.806;-70.704;2023-01-16T17:01:58;13.73;;;2.87;;
249;SDS011;109;19.806;-70.704;2023-01-16T17:04:33;10.83;;;2.80;;
249;SDS011;109;19.806;-70.704;2023-01-16T17:07:00;11.90;;;2.70;;
249;SDS011;109;19.806;-70.704;2023-01-16T17:09:27;12.40;;;3.03;;
249;SDS011;109;19.806;-70.704;2023-01-16T17:11:58;8.63;;;2.83;;
249;SDS011;109;19.806;-70.704;2023-01-16T17:14:38;11.57;;;2.80;;
249;SDS011;109;19.806;-70.704;2023-01-16T17:17:09;6.87;;;3.00;;
249;SDS011;109;19.806;-70.704;2023-01-16T17:19:37;14.20;;;3.90;;
249;SDS011;109;19.806;-70.704;2023-01-16T17:22:04;13.27;;;3.13;;
249;SDS011;109;19.806;-70.704;2023-01-16T17:24:31;14.07;;;3.43;;
249;SDS011;109;19.806;-70.704;2023-01-16T17:26:58;12.53;;;2.97;;
249;SDS011;109;19.806;-70.704;2023-01-16T17:29:26;21.23;;;3.73;;
249;SDS011;109;19.806;-70.704;2023-01-16T17:31:53;19.83;;;5.13;;
249;SDS011;109;19.806;-70.704;2023-01-16T17:34:20;11.53;;;2.70;;
249;SDS011;109;19.806;-70.704;2023-01-16T17:36:49;7.47;;;2.90;;
249;SDS011;109;19.806;-70.704;2023-01-16T17:39:16;14.07;;;3.07;;
249;SDS011;109;19.806;-70.704;2023-01-16T17:41:42;9.77;;;2.77;;
249;SDS011;109;19.806;-70.704;2023-01-16T17:44:18;10.00;;;3.50;;
249;SDS011;109;19.806;-70.704;2023-01-16T17:47:06;13.10;;;2.90;;
249;SDS011;109;19.806;-70.704;2023-01-16T17:49:32;18.23;;;3.27;;
249;SDS011;109;19.806;-70.704;2023-01-16T17:52:19;15.07;;;2.70;;
249;SDS011;109;19.806;-70.704;2023-01-16T17:54:46;6.70;;;2.33;;
249;SDS011;109;19.806;-70.704;2023-01-16T17:57:31;10.80;;;2.93;;
249;SDS011;109;19.806;-70.704;2023-01-16T17:59:58;12.17;;;2.40;;
249;SDS011;109;19.806;-70.704;2023-01-16T18:02:25;16.43;;;2.90;;
249;SDS011;109;19.806;-70.704;2023-01-16T18:04:51;6.53;;;2.40;;
249;SDS011;109;19.806;-70.704;2023-01-16T18:07:18;14.00;;;2.27;;
249;SDS011;109;19.806;-70.704;2023-01-16T18:09:44;8.47;;;2.60;;
249;SDS011;109;19.806;-70.704;2023-01-16T18:12:14;13.07;;;2.80;;
249;SDS011;109;19.806;-70.704;2023-01-16T18:18:28;16.27;;;2.87;;
249;SDS011;109;19.806;-70.704;2023-01-16T18:20:54;10.53;;;2.40;;
249;SDS011;109;19.806;-70.704;2023-01-16T18:23:40;10.90;;;2.47;;
249;SDS011;109;19.806;-70.704;2023-01-16T18:26:07;15.40;;;3.30;;
249;SDS011;109;19.806;-70.704;2023-01-16T18:28:33;12.30;;;2.20;;
249;SDS011;109;19.806;-70.704;2023-01-16T18:31:03;23.60;;;3.43;;
249;SDS011;109;19.806;-70.704;2023-01-16T18:33:40;13.53;;;2.80;;
249;SDS011;109;19.806;-70.704;2023-01-16T18:36:06;12.73;;;2.67;;
249;SDS011;109;19.806;-70.704;2023-01-16T18:38:33;17.97;;;2.30;;
249;SDS011;109;19.806;-70.704;2023-01-16T18:41:18;17.13;;;2.87;;
249;SDS011;109;19.806;-70.704;2023-01-16T18:44:03;12.10;;;2.80;;